createdAt,value
2018-05-12T00:00:18.145Z,95124.33
2018-05-12T00:02:47.265Z,95123.75
2018-05-12T00:05:17.722Z,95121.02
2018-05-12T00:07:46.957Z,95117.88
2018-05-12T00:10:16.378Z,95121.28
2018-05-12T00:12:46.716Z,95118.05
2018-05-12T00:15:15.839Z,95115.44
2018-05-12T00:17:45.405Z,95117.83
2018-05-12T00:20:13.927Z,95116.53
2018-05-12T00:22:42.407Z,95115.31
2018-05-12T00:25:10.868Z,95115.70
2018-05-12T00:27:39.295Z,95121.34
2018-05-12T00:30:07.775Z,95116.42
2018-05-12T00:32:36.190Z,95114.06
2018-05-12T00:35:04.618Z,95112.10
2018-05-12T00:37:33.055Z,95109.83
2018-05-12T00:40:01.623Z,95107.75
2018-05-12T00:42:30.172Z,95102.98
2018-05-12T00:45:00.513Z,95108.34
2018-05-12T00:47:28.980Z,95106.02
2018-05-12T00:49:57.391Z,95103.67
2018-05-12T00:52:25.819Z,95107.81
2018-05-12T00:54:54.375Z,95102.48
2018-05-12T00:57:22.776Z,95104.00
2018-05-12T00:59:51.297Z,95101.55
2018-05-12T01:02:19.729Z,95100.84
2018-05-12T01:04:48.204Z,95096.20
2018-05-12T01:07:16.624Z,95098.08
2018-05-12T01:09:45.008Z,95099.48
2018-05-12T01:12:17.093Z,95094.18
2018-05-12T01:14:46.644Z,95095.13
2018-05-12T01:17:15.183Z,95092.47
2018-05-12T01:19:43.625Z,95090.45
2018-05-12T01:22:12.067Z,95094.34
2018-05-12T01:24:40.656Z,95094.17
2018-05-12T01:27:09.118Z,95086.86
2018-05-12T01:29:37.490Z,95087.90
2018-05-12T01:32:10.686Z,95090.97
2018-05-12T01:34:39.107Z,95087.52
2018-05-12T01:37:07.595Z,95083.49
2018-05-12T01:39:36.090Z,95084.68
2018-05-12T01:42:04.633Z,95085.11
2018-05-12T01:44:33.044Z,95082.56
2018-05-12T01:47:01.516Z,95084.78
2018-05-12T01:49:29.911Z,95085.45
2018-05-12T01:51:58.310Z,95084.56
2018-05-12T01:54:26.780Z,95088.89
2018-05-12T01:56:56.136Z,95091.48
2018-05-12T01:59:24.566Z,95094.55
2018-05-12T02:01:52.950Z,95090.41
2018-05-12T02:04:21.503Z,95083.38
2018-05-12T02:06:49.913Z,95089.42
2018-05-12T02:09:18.350Z,95085.63
2018-05-12T02:11:46.763Z,95082.39
2018-05-12T02:14:15.268Z,95086.73
2018-05-12T02:16:43.667Z,95083.81
2018-05-12T02:19:12.192Z,95089.20
2018-05-12T02:21:40.601Z,95087.56
2018-05-12T02:24:10.032Z,95101.11
2018-05-12T02:26:38.540Z,95100.57
2018-05-12T02:29:06.923Z,95100.12
2018-05-12T02:31:35.516Z,95100.13
2018-05-12T02:34:03.943Z,95093.88
2018-05-12T02:36:32.326Z,95097.89
2018-05-12T02:39:00.742Z,95096.11
2018-05-12T02:41:29.135Z,95102.47
2018-05-12T02:43:57.676Z,95095.50
2018-05-12T02:46:26.072Z,95095.75
2018-05-12T02:48:54.524Z,95097.38
2018-05-12T02:51:22.939Z,95099.12
2018-05-12T02:53:51.377Z,95099.14
2018-05-12T02:56:19.775Z,95094.25
2018-05-12T02:58:48.265Z,95091.75
2018-05-12T03:01:17.696Z,95096.71
2018-05-12T03:03:46.177Z,95093.09
2018-05-12T03:06:14.621Z,95090.71
2018-05-12T03:08:43.026Z,95091.23
2018-05-12T03:11:11.474Z,95091.61
2018-05-12T03:13:39.858Z,95086.55
2018-05-12T03:16:08.286Z,95084.46
2018-05-12T03:18:36.717Z,95093.34
2018-05-12T03:21:05.128Z,95090.35
2018-05-12T03:23:33.515Z,95084.99
2018-05-12T03:26:01.915Z,95082.44
2018-05-12T03:28:30.352Z,95089.53
2018-05-12T03:30:58.850Z,95083.83
2018-05-12T03:33:27.327Z,95077.83
2018-05-12T03:35:55.840Z,95074.07
2018-05-12T03:38:24.232Z,95072.15
2018-05-12T03:40:52.628Z,95079.07
2018-05-12T03:43:21.007Z,95078.48
2018-05-12T03:45:49.554Z,95077.19
2018-05-12T03:48:18.078Z,95073.06
2018-05-12T03:50:46.567Z,95079.52
2018-05-12T03:53:15.051Z,95081.50
2018-05-12T03:55:43.467Z,95081.59
2018-05-12T03:58:11.888Z,95080.47
2018-05-12T04:00:40.286Z,95082.60
2018-05-12T04:03:08.736Z,95078.84
2018-05-12T04:05:48.798Z,95080.67
2018-05-12T04:08:29.847Z,95077.28
2018-05-12T04:11:10.145Z,95076.55
2018-05-12T04:13:38.655Z,95079.94
2018-05-12T04:16:07.101Z,95079.94
2018-05-12T04:18:35.660Z,95081.52
2018-05-12T04:21:04.112Z,95079.36
2018-05-12T04:23:32.559Z,95076.56
2018-05-12T04:26:01.080Z,95081.46
2018-05-12T04:28:29.465Z,95072.40
2018-05-12T04:30:57.988Z,95078.34
2018-05-12T04:33:26.491Z,95078.61
2018-05-12T04:35:55.096Z,95072.70
2018-05-12T04:38:23.630Z,95077.50
2018-05-12T04:40:52.059Z,95075.03
2018-05-12T04:43:21.520Z,95078.36
2018-05-12T04:45:49.909Z,95076.31
2018-05-12T04:48:18.302Z,95076.06
2018-05-12T04:50:46.725Z,95075.69
2018-05-12T04:53:15.121Z,95075.98
2018-05-12T04:55:43.625Z,95081.99
2018-05-12T04:58:12.079Z,95079.53
2018-05-12T05:00:41.454Z,95081.23
2018-05-12T05:03:09.919Z,95086.34
2018-05-12T05:05:38.384Z,95076.39
2018-05-12T05:08:07.041Z,95081.19
2018-05-12T05:10:35.388Z,95083.11
2018-05-12T05:13:03.784Z,95084.04
2018-05-12T05:15:32.243Z,95086.74
2018-05-12T05:18:00.791Z,95085.48
2018-05-12T05:20:29.413Z,95083.23
2018-05-12T05:22:58.106Z,95084.57
2018-05-12T05:25:26.759Z,95085.41
2018-05-12T05:27:55.457Z,95088.33
2018-05-12T05:30:23.878Z,95081.66
2018-05-12T05:32:52.425Z,95081.97
2018-05-12T05:35:20.891Z,95076.76
2018-05-12T05:37:49.479Z,95078.64
2018-05-12T05:40:18.875Z,95070.80
2018-05-12T05:42:47.436Z,95080.97
2018-05-12T05:45:16.055Z,95075.34
2018-05-12T05:47:45.449Z,95075.65
2018-05-12T05:50:14.016Z,95077.92
2018-05-12T05:52:42.510Z,95082.38
2018-05-12T05:55:11.123Z,95076.83
2018-05-12T05:57:39.651Z,95078.56
2018-05-12T06:00:08.272Z,95077.95
2018-05-12T06:02:36.849Z,95071.94
2018-05-12T06:05:05.281Z,95074.63
2018-05-12T06:07:33.690Z,95071.02
2018-05-12T06:10:04.072Z,95067.67
2018-05-12T06:12:32.785Z,95069.23
2018-05-12T06:15:01.312Z,95066.78
2018-05-12T06:17:29.739Z,95069.14
2018-05-12T06:19:58.270Z,95071.67
2018-05-12T06:22:26.693Z,95066.25
2018-05-12T06:24:55.229Z,95069.93
2018-05-12T06:27:24.926Z,95066.28
2018-05-12T06:29:53.440Z,95065.08
2018-05-12T06:32:24.473Z,95057.88
2018-05-12T06:34:53.039Z,95060.73
2018-05-12T06:37:21.655Z,95063.93
2018-05-12T06:39:51.257Z,95055.76
2018-05-12T06:42:21.730Z,95060.47
2018-05-12T06:44:50.555Z,95060.30
2018-05-12T06:47:19.219Z,95061.61
2018-05-12T06:49:48.197Z,95057.81
2018-05-12T06:52:16.852Z,95054.39
2018-05-12T06:54:45.721Z,95055.91
2018-05-12T06:57:16.398Z,95055.42
2018-05-12T06:59:45.028Z,95055.99
2018-05-12T07:02:14.576Z,95057.38
2018-05-12T07:04:43.679Z,95059.11
2018-05-12T07:07:12.158Z,95057.00
2018-05-12T07:09:40.823Z,95051.89
2018-05-12T07:12:09.818Z,95052.78
2018-05-12T07:14:40.398Z,95054.62
2018-05-12T07:17:12.720Z,95051.80
2018-05-12T07:19:41.803Z,95060.15
2018-05-12T07:22:10.717Z,95060.48
2018-05-12T07:24:39.477Z,95060.28
2018-05-12T07:27:09.340Z,95048.60
2018-05-12T07:29:43.376Z,95054.08
2018-05-12T07:32:13.481Z,95049.06
2018-05-12T07:34:43.377Z,95051.78
2018-05-12T07:37:12.848Z,95050.81
2018-05-12T07:39:41.586Z,95050.34
2018-05-12T07:42:09.996Z,95043.64
2018-05-12T07:44:38.641Z,95040.83
2018-05-12T07:47:07.430Z,95041.53
2018-05-12T07:49:35.958Z,95039.34
2018-05-12T07:52:08.457Z,95040.06
2018-05-12T07:54:37.769Z,95041.80
2018-05-12T07:57:07.247Z,95042.92
2018-05-12T07:59:37.625Z,95036.20
2018-05-12T08:02:06.536Z,95036.52
2018-05-12T08:04:36.072Z,95030.37
2018-05-12T08:07:04.564Z,95032.00
2018-05-12T08:09:33.156Z,95026.60
2018-05-12T08:12:01.953Z,95035.02
2018-05-12T08:14:30.588Z,95033.69
2018-05-12T08:17:01.318Z,95028.60
2018-05-12T08:19:33.207Z,95036.24
2018-05-12T08:22:04.562Z,95031.59
2018-05-12T08:24:33.175Z,95032.93
2018-05-12T08:27:01.793Z,95029.59
2018-05-12T08:29:30.368Z,95027.80
2018-05-12T08:31:58.778Z,95031.19
2018-05-12T08:34:27.322Z,95032.39
2018-05-12T08:36:57.229Z,95020.94
2018-05-12T08:39:25.819Z,95021.50
2018-05-12T08:41:55.141Z,95023.50
2018-05-12T08:44:23.972Z,95026.20
2018-05-12T08:46:52.485Z,95027.46
2018-05-12T08:49:20.943Z,95025.80
2018-05-12T08:51:49.571Z,95020.46
2018-05-12T08:54:19.834Z,95017.73
2018-05-12T08:56:53.363Z,95019.83
2018-05-12T08:59:23.076Z,95015.68
2018-05-12T09:01:52.073Z,95014.31
2018-05-12T09:04:20.583Z,95016.20
2018-05-12T09:06:49.254Z,95015.98
2018-05-12T09:09:20.483Z,95016.16
2018-05-12T09:11:49.004Z,95015.39
2018-05-12T09:14:17.418Z,95012.11
2018-05-12T09:16:50.263Z,95007.51
2018-05-12T09:19:19.526Z,95012.31
2018-05-12T09:21:48.380Z,95014.59
2018-05-12T09:24:17.045Z,95010.59
2018-05-12T09:26:47.966Z,95014.05
2018-05-12T09:29:18.201Z,95007.78
2018-05-12T09:31:47.060Z,95007.75
2018-05-12T09:34:15.901Z,95006.24
2018-05-12T09:36:44.377Z,95008.23
2018-05-12T09:39:13.123Z,95003.73
2018-05-12T09:41:42.258Z,95001.87
2018-05-12T09:44:12.031Z,95003.97
2018-05-12T09:46:41.807Z,94999.77
2018-05-12T09:49:12.548Z,94991.19
2018-05-12T09:51:42.398Z,94989.39
2018-05-12T09:54:29.093Z,94987.77
2018-05-12T10:03:27.783Z,94983.78
2018-05-12T10:15:34.035Z,94977.98
2018-05-12T10:18:03.463Z,94971.08
2018-05-12T10:20:35.345Z,94976.70
2018-05-12T10:23:08.269Z,94970.24
2018-05-12T10:25:38.207Z,94970.23
2018-05-12T10:28:07.341Z,94966.92
2018-05-12T10:30:36.678Z,94970.53
2018-05-12T10:33:05.926Z,94965.94
2018-05-12T10:35:40.048Z,94958.38
2018-05-12T10:38:11.420Z,94961.44
2018-05-12T10:40:46.598Z,94962.89
2018-05-12T10:43:21.792Z,94962.85
2018-05-12T10:48:27.603Z,94955.50
2018-05-12T10:51:02.738Z,94960.30
2018-05-12T10:53:35.428Z,94953.69
2018-05-12T10:56:08.698Z,94948.42
2018-05-12T10:58:44.168Z,94955.20
2018-05-12T11:01:14.519Z,94946.09
2018-05-12T11:03:52.872Z,94948.75
2018-05-12T11:06:31.438Z,94937.97
2018-05-12T11:09:07.205Z,94942.38
2018-05-12T11:14:33.009Z,94924.70
2018-05-12T11:17:06.143Z,94929.70
2018-05-12T11:19:42.008Z,94926.36
2018-05-12T11:22:27.828Z,94919.83
2018-05-12T11:27:50.595Z,94918.97
2018-05-12T11:30:40.353Z,94917.23
2018-05-12T11:33:12.657Z,94911.80
2018-05-12T11:35:51.086Z,94907.27
2018-05-12T11:38:29.272Z,94905.79
2018-05-12T11:40:59.726Z,94916.72
2018-05-12T11:43:31.221Z,94908.97
2018-05-12T11:48:50.174Z,94903.84
2018-05-12T11:51:28.528Z,94902.58
2018-05-12T11:54:05.275Z,94894.79
2018-05-12T11:56:50.542Z,94893.59
2018-05-12T11:59:29.529Z,94888.69
2018-05-12T12:02:03.478Z,94879.69
2018-05-12T12:04:36.994Z,94883.47
2018-05-12T12:07:12.465Z,94884.11
2018-05-12T12:09:46.065Z,94878.81
2018-05-12T12:12:16.878Z,94879.59
2018-05-12T12:14:53.687Z,94880.22
2018-05-12T12:17:32.818Z,94884.73
2018-05-12T12:26:05.520Z,94866.47
2018-05-12T12:32:33.807Z,94873.94
2018-05-12T13:00:29.249Z,94860.10
2018-05-12T13:03:04.373Z,94859.39
2018-05-12T13:08:24.674Z,94843.11
2018-05-12T13:10:59.972Z,94848.26
2018-05-12T13:13:30.543Z,94845.28
2018-05-12T13:16:02.402Z,94850.78
2018-05-12T13:18:37.579Z,94838.49
2018-05-12T13:21:26.823Z,94840.53
2018-05-12T13:24:00.971Z,94838.41
2018-05-12T13:26:29.418Z,94830.19
2018-05-12T13:28:57.999Z,94828.34
2018-05-12T13:31:26.588Z,94831.09
2018-05-12T13:33:57.182Z,94834.75
2018-05-12T13:36:26.657Z,94836.66
2018-05-12T13:38:56.223Z,94833.16
2018-05-12T13:41:31.547Z,94832.80
2018-05-12T13:50:05.758Z,94823.36
2018-05-12T13:52:46.615Z,94822.58
2018-05-12T14:02:04.015Z,94821.17
2018-05-12T14:45:32.852Z,94804.55
2018-05-12T14:48:01.641Z,94798.06
2018-05-12T14:50:30.544Z,94789.55
2018-05-12T14:52:59.692Z,94798.30
2018-05-12T14:55:28.253Z,94795.47
2018-05-12T14:57:57.332Z,94795.89
2018-05-12T15:00:26.080Z,94796.69
2018-05-12T15:02:55.372Z,94794.48
2018-05-12T15:05:25.210Z,94798.20
2018-05-12T15:07:54.767Z,94790.39
2018-05-12T15:10:23.600Z,94790.07
2018-05-12T15:12:52.493Z,94781.25
2018-05-12T15:15:22.527Z,94780.42
2018-05-12T15:17:51.190Z,94776.30
2018-05-12T15:20:21.349Z,94774.71
2018-05-12T15:22:50.336Z,94773.32
2018-05-12T15:25:20.002Z,94767.09
2018-05-12T15:27:49.145Z,94767.38
2018-05-12T15:30:21.326Z,94768.36
2018-05-12T15:32:50.411Z,94765.13
2018-05-12T15:35:20.248Z,94754.98
2018-05-12T15:37:49.378Z,94767.62
2018-05-12T15:40:18.475Z,94759.59
2018-05-12T15:42:47.971Z,94760.97
2018-05-12T15:45:16.743Z,94763.17
2018-05-12T15:47:46.433Z,94762.48
2018-05-12T15:50:15.318Z,94761.18
2018-05-12T15:52:43.791Z,94755.86
2018-05-12T15:55:12.356Z,94755.94
2018-05-12T15:57:42.199Z,94756.69
2018-05-12T16:00:10.758Z,94751.13
2018-05-12T16:02:40.373Z,94753.85
2018-05-12T16:05:08.840Z,94754.59
2018-05-12T16:07:37.390Z,94743.23
2018-05-12T16:10:06.033Z,94745.69
2018-05-12T16:12:34.903Z,94743.95
2018-05-12T16:15:03.482Z,94750.03
2018-05-12T16:17:31.958Z,94745.23
2018-05-12T16:20:00.647Z,94741.36
2018-05-12T16:22:29.532Z,94743.77
2018-05-12T16:24:57.976Z,94739.58
2018-05-12T16:27:26.718Z,94740.36
2018-05-12T16:29:55.278Z,94744.05
2018-05-12T16:32:24.817Z,94742.32
2018-05-12T16:34:54.239Z,94737.94
2018-05-12T16:37:22.995Z,94739.23
2018-05-12T16:39:51.533Z,94731.00
2018-05-12T16:42:20.142Z,94734.81
2018-05-12T16:44:48.843Z,94728.91
2018-05-12T16:47:17.338Z,94733.31
2018-05-12T16:49:45.984Z,94731.03
2018-05-12T16:52:16.553Z,94727.13
2018-05-12T16:54:45.544Z,94726.59
2018-05-12T16:57:14.525Z,94727.40
2018-05-12T16:59:43.542Z,94725.80
2018-05-12T17:02:14.299Z,94725.14
2018-05-12T17:04:43.514Z,94722.84
2018-05-12T17:07:13.693Z,94726.02
2018-05-12T17:09:42.156Z,94713.16
2018-05-12T17:12:10.839Z,94715.78
2018-05-12T17:14:39.628Z,94716.47
2018-05-12T17:17:09.206Z,94719.39
2018-05-12T17:19:38.231Z,94716.02
2018-05-12T17:22:08.580Z,94722.24
2018-05-12T17:24:37.273Z,94714.39
2018-05-12T17:27:06.077Z,94712.92
2018-05-12T17:29:34.693Z,94709.84
2018-05-12T17:32:03.260Z,94709.53
2018-05-12T17:34:31.790Z,94705.97
2018-05-12T17:37:00.302Z,94704.42
2018-05-12T17:39:29.091Z,94711.59
2018-05-12T17:41:57.718Z,94707.89
2018-05-12T17:44:29.180Z,94705.56
2018-05-12T17:47:05.079Z,94706.89
2018-05-12T17:49:35.702Z,94707.50
2018-05-12T17:52:05.047Z,94710.09
2018-05-12T17:54:33.864Z,94700.59
2018-05-12T17:57:03.203Z,94706.95
2018-05-12T17:59:31.759Z,94703.72
2018-05-12T18:02:00.340Z,94704.95
2018-05-12T18:04:29.196Z,94704.27
2018-05-12T18:06:58.603Z,94704.02
2018-05-12T18:09:28.724Z,94700.62
2018-05-12T18:11:57.650Z,94696.45
2018-05-12T18:14:26.643Z,94694.09
2018-05-12T18:16:55.526Z,94693.36
2018-05-12T18:19:24.484Z,94694.01
2018-05-12T18:21:53.628Z,94697.59
2018-05-12T18:24:22.210Z,94694.37
2018-05-12T18:26:51.497Z,94696.48
2018-05-12T18:29:21.591Z,94696.33
2018-05-12T18:31:50.602Z,94693.39
2018-05-12T18:34:19.204Z,94693.80
2018-05-12T18:36:48.667Z,94692.32
2018-05-12T18:39:20.100Z,94695.63
2018-05-12T18:41:49.683Z,94695.87
2018-05-12T18:44:19.300Z,94695.35
2018-05-12T18:46:50.943Z,94695.09
2018-05-12T18:49:21.034Z,94690.01
2018-05-12T18:51:49.923Z,94689.73
2018-05-12T18:54:18.562Z,94690.22
2018-05-12T18:56:47.136Z,94696.02
2018-05-12T18:59:16.040Z,94697.95
2018-05-12T19:01:44.529Z,94700.54
2018-05-12T19:04:13.622Z,94712.80
2018-05-12T19:06:42.572Z,94707.09
2018-05-12T19:09:13.130Z,94712.25
2018-05-12T19:11:42.330Z,94712.11
2018-05-12T19:14:11.052Z,94712.08
2018-05-12T19:16:39.989Z,94711.47
2018-05-12T19:19:08.635Z,94710.23
2018-05-12T19:21:37.284Z,94713.50
2018-05-12T19:24:08.389Z,94715.95
2018-05-12T19:26:39.684Z,94716.53
2018-05-12T19:29:09.276Z,94718.22
2018-05-12T19:31:39.922Z,94721.89
2018-05-12T19:34:08.699Z,94723.77
2018-05-12T19:36:37.139Z,94721.12
2018-05-12T19:39:05.608Z,94711.84
2018-05-12T19:41:34.219Z,94712.34
2018-05-12T19:44:03.074Z,94715.94
2018-05-12T19:46:33.401Z,94714.76
2018-05-12T19:49:01.844Z,94713.91
2018-05-12T19:51:31.168Z,94717.30
2018-05-12T19:54:00.672Z,94716.53
2018-05-12T19:56:29.777Z,94719.22
2018-05-12T19:59:00.039Z,94719.99
2018-05-12T20:01:28.578Z,94729.14
2018-05-12T20:03:57.118Z,94733.16
2018-05-12T20:06:25.599Z,94728.31
2018-05-12T20:08:54.241Z,94724.95
2018-05-12T20:11:23.072Z,94726.11
2018-05-12T20:13:51.586Z,94724.55
2018-05-12T20:16:20.132Z,94725.41
2018-05-12T20:18:48.651Z,94720.27
2018-05-12T20:21:17.270Z,94720.05
2018-05-12T20:23:45.698Z,94722.88
2018-05-12T20:26:14.401Z,94719.51
2018-05-12T20:28:43.850Z,94728.13
2018-05-12T20:31:12.511Z,94718.08
2018-05-12T20:33:41.140Z,94723.77
2018-05-12T20:36:09.781Z,94719.17
2018-05-12T20:38:38.353Z,94721.91
2018-05-12T20:41:06.831Z,94715.98
2018-05-12T20:43:35.302Z,94714.81
2018-05-12T20:46:03.912Z,94710.08
2018-05-12T20:48:32.458Z,94720.45
2018-05-12T20:51:00.958Z,94714.80
2018-05-12T20:53:29.387Z,94723.31
2018-05-12T20:55:57.940Z,94723.10
2018-05-12T20:58:26.423Z,94719.19
2018-05-12T21:00:54.888Z,94721.28
2018-05-12T21:03:23.307Z,94712.99
2018-05-12T21:05:51.744Z,94710.69
2018-05-12T21:08:20.204Z,94712.56
2018-05-12T21:10:48.850Z,94710.23
2018-05-12T21:13:18.870Z,94707.58
2018-05-12T21:15:47.328Z,94706.83
2018-05-12T21:18:15.902Z,94709.06
2018-05-12T21:20:44.387Z,94710.19
2018-05-12T21:23:12.936Z,94705.27
2018-05-12T21:25:41.486Z,94708.52
2018-05-12T21:28:09.899Z,94706.48
2018-05-12T21:30:39.272Z,94699.91
2018-05-12T21:33:07.703Z,94694.89
2018-05-12T21:35:36.235Z,94700.59
2018-05-12T21:38:05.025Z,94707.57
2018-05-12T21:40:33.390Z,94709.25
2018-05-12T21:43:01.975Z,94702.58
2018-05-12T21:45:30.516Z,94704.70
2018-05-12T21:47:59.019Z,94709.13
2018-05-12T21:50:27.501Z,94707.83
2018-05-12T21:52:56.011Z,94703.95
2018-05-12T21:55:24.475Z,94704.41
2018-05-12T21:57:53.037Z,94702.97
2018-05-12T22:00:21.536Z,94702.83
2018-05-12T22:02:50.888Z,94701.36
2018-05-12T22:05:19.401Z,94699.82
2018-05-12T22:07:47.964Z,94697.72
2018-05-12T22:10:16.388Z,94701.61
2018-05-12T22:12:44.951Z,94690.61
2018-05-12T22:15:13.421Z,94692.36
2018-05-12T22:17:41.927Z,94690.63
2018-05-12T22:20:10.411Z,94686.38
2018-05-12T22:22:38.953Z,94691.66
2018-05-12T22:25:07.402Z,94675.13
2018-05-12T22:27:35.842Z,94674.27
2018-05-12T22:30:04.542Z,94676.20
2018-05-12T22:32:32.990Z,94679.23
2018-05-12T22:35:01.509Z,94673.89
2018-05-12T22:37:30.074Z,94679.36
2018-05-12T22:39:58.514Z,94673.50
2018-05-12T22:42:26.941Z,94670.27
2018-05-12T22:44:55.531Z,94673.40
2018-05-12T22:47:24.153Z,94671.09
2018-05-12T22:49:52.603Z,94666.46
2018-05-12T22:52:21.093Z,94666.84
2018-05-12T22:54:49.639Z,94673.34
2018-05-12T22:57:18.249Z,94666.90
2018-05-12T22:59:46.757Z,94666.56
2018-05-12T23:02:15.214Z,94661.25
2018-05-12T23:04:43.684Z,94663.13
2018-05-12T23:07:12.193Z,94662.04
2018-05-12T23:09:40.694Z,94666.66
2018-05-12T23:12:09.235Z,94658.16
2018-05-12T23:14:37.813Z,94659.88
2018-05-12T23:17:06.432Z,94655.03
2018-05-12T23:19:34.931Z,94655.31
2018-05-12T23:22:03.678Z,94653.77
2018-05-12T23:24:32.175Z,94654.08
2018-05-12T23:27:00.762Z,94649.22
2018-05-12T23:29:29.321Z,94648.44
2018-05-12T23:32:01.525Z,94638.43
2018-05-12T23:34:30.055Z,94643.77
2018-05-12T23:36:58.558Z,94634.29
2018-05-12T23:39:26.963Z,94633.11
2018-05-12T23:41:55.644Z,94635.30
2018-05-12T23:44:24.222Z,94631.27
2018-05-12T23:46:52.910Z,94629.07
2018-05-12T23:49:21.416Z,94621.89
2018-05-12T23:51:49.883Z,94627.39
2018-05-12T23:54:18.423Z,94624.78
2018-05-12T23:56:46.857Z,94619.59
2018-05-12T23:59:15.326Z,94622.23
